createdAt,value
2019-04-23T00:00:56.326Z,57.37
2019-04-23T00:03:18.846Z,57.48
2019-04-23T00:06:00.077Z,58.25
2019-04-23T00:08:26.057Z,57.45
2019-04-23T00:10:58.884Z,57.02
2019-04-23T00:13:29.813Z,56.92
2019-04-23T00:16:03.052Z,57.04
2019-04-23T00:18:37.366Z,56.56
2019-04-23T00:21:11.713Z,56.29
2019-04-23T00:23:38.481Z,55.10
2019-04-23T00:26:19.869Z,55.74
2019-04-23T00:31:13.411Z,58.26
2019-04-23T00:33:36.130Z,57.79
2019-04-23T00:36:10.365Z,57.94
2019-04-23T00:38:38.667Z,58.89
2019-04-23T00:41:09.389Z,58.19
2019-04-23T00:43:43.369Z,58.00
2019-04-23T00:46:06.564Z,58.38
2019-04-23T00:48:42.768Z,59.21
2019-04-23T00:51:07.823Z,59.01
2019-04-23T00:53:37.045Z,59.89
2019-04-23T00:56:25.264Z,60.12
2019-04-23T00:58:44.089Z,61.17
2019-04-23T01:01:11.315Z,61.34
2019-04-23T01:03:45.384Z,62.03
2019-04-23T01:06:12.943Z,62.03
2019-04-23T01:08:49.703Z,62.30
2019-04-23T01:11:20.437Z,63.08
2019-04-23T01:16:15.266Z,63.91
2019-04-23T01:18:51.510Z,63.74
2019-04-23T01:21:03.322Z,63.71
2019-04-23T01:23:44.549Z,63.42
2019-04-23T01:26:31.563Z,63.36
2019-04-23T01:29:09.194Z,63.21
2019-04-23T01:31:39.471Z,63.38
2019-04-23T01:34:07.954Z,63.41
2019-04-23T01:36:32.545Z,62.63
2019-04-23T01:41:44.498Z,62.95
2019-04-23T01:44:05.267Z,62.94
2019-04-23T01:46:43.136Z,62.44
2019-04-23T01:49:30.915Z,62.76
2019-04-23T01:54:09.529Z,63.28
2019-04-23T01:56:38.597Z,64.04
2019-04-23T01:59:16.664Z,63.49
2019-04-23T02:01:46.280Z,62.95
2019-04-23T02:04:20.167Z,62.51
2019-04-23T02:06:45.517Z,62.75
2019-04-23T02:09:13.794Z,62.45
2019-04-23T02:11:45.498Z,62.57
2019-04-23T02:14:16.377Z,62.28
2019-04-23T02:16:47.824Z,62.30
2019-04-23T02:19:17.053Z,62.18
2019-04-23T02:22:06.742Z,63.27
2019-04-23T02:24:45.045Z,62.63
2019-04-23T02:27:05.459Z,62.78
2019-04-23T02:29:55.991Z,63.30
2019-04-23T02:32:09.386Z,63.09
2019-04-23T02:34:52.412Z,62.93
2019-04-23T02:37:24.367Z,62.21
2019-04-23T02:40:08.637Z,63.14
2019-04-23T02:44:45.503Z,61.96
2019-04-23T02:49:54.829Z,63.53
2019-04-23T02:57:18.641Z,63.61
2019-04-23T03:00:08.067Z,64.19
2019-04-23T03:04:57.733Z,64.27
2019-04-23T03:09:56.592Z,65.05
2019-04-23T03:12:37.806Z,65.58
2019-04-23T03:15:00.679Z,66.04
2019-04-23T03:17:26.395Z,66.12
2019-04-23T03:25:46.022Z,64.83
2019-04-23T03:28:21.245Z,64.41
2019-04-23T03:32:31.903Z,64.03
2019-04-23T03:38:37.527Z,62.34
2019-04-23T03:41:10.710Z,62.26
2019-04-23T03:43:33.275Z,63.09
2019-04-23T03:48:45.353Z,67.65
2019-04-23T03:50:52.823Z,68.10
2019-04-23T03:56:12.454Z,67.95
2019-04-23T04:01:11.970Z,67.25
2019-04-23T04:04:03.785Z,66.32
2019-04-23T04:06:20.897Z,66.00
2019-04-23T04:08:36.023Z,65.11
2019-04-23T04:11:11.399Z,63.60
2019-04-23T04:19:01.700Z,66.56
2019-04-23T04:21:16.158Z,66.28
2019-04-23T04:23:43.061Z,66.99
2019-04-23T04:26:17.271Z,67.06
2019-04-23T04:31:30.973Z,68.49
2019-04-23T04:36:20.985Z,68.21
2019-04-23T04:38:56.698Z,68.65
2019-04-23T04:41:24.009Z,67.49
2019-04-23T04:46:21.178Z,68.19
2019-04-23T04:48:49.285Z,67.70
2019-04-23T04:56:18.909Z,64.12
2019-04-23T04:59:05.298Z,64.44
2019-04-23T05:03:32.770Z,64.92
2019-04-23T05:06:44.596Z,65.44
2019-04-23T05:08:56.070Z,65.70
2019-04-23T05:11:28.925Z,63.48
2019-04-23T05:13:49.832Z,63.12
2019-04-23T05:16:27.701Z,63.59
2019-04-23T05:21:38.898Z,61.27
2019-04-23T05:24:14.853Z,58.65
2019-04-23T05:31:28.055Z,56.80
2019-04-23T05:34:02.586Z,55.85
2019-04-23T05:36:49.892Z,57.33
2019-04-23T05:39:12.247Z,58.06
2019-04-23T05:49:06.202Z,56.92
2019-04-23T05:51:44.561Z,58.78
2019-04-23T05:54:06.494Z,59.13
2019-04-23T05:56:38.219Z,59.70
2019-04-23T05:59:14.705Z,61.32
2019-04-23T06:04:17.701Z,61.44
2019-04-23T06:11:56.958Z,57.79
2019-04-23T06:14:17.396Z,58.41
2019-04-23T06:16:41.862Z,58.15
2019-04-23T06:19:14.363Z,59.54
2019-04-23T06:21:52.900Z,57.25
2019-04-23T06:29:20.986Z,57.05
2019-04-23T06:31:48.835Z,56.79
2019-04-23T06:34:20.353Z,56.03
2019-04-23T06:36:44.460Z,57.58
2019-04-23T06:39:24.362Z,55.30
2019-04-23T06:41:49.883Z,56.39
2019-04-23T06:49:27.944Z,56.41
2019-04-23T06:52:02.349Z,55.70
2019-04-23T06:54:27.875Z,56.01
2019-04-23T06:56:58.689Z,56.90
2019-04-23T06:59:27.347Z,54.79
2019-04-23T07:01:59.400Z,54.80
2019-04-23T07:04:25.889Z,56.49
2019-04-23T07:07:15.121Z,54.90
2019-04-23T07:09:40.113Z,54.08
2019-04-23T07:12:08.670Z,54.73
2019-04-23T07:14:30.785Z,54.97
2019-04-23T07:16:58.913Z,55.05
2019-04-23T07:19:44.967Z,53.12
2019-04-23T07:22:08.131Z,52.82
2019-04-23T07:24:32.857Z,47.88
2019-04-23T07:26:54.873Z,46.47
2019-04-23T07:29:54.315Z,45.95
2019-04-23T07:32:11.835Z,46.12
2019-04-23T07:34:28.229Z,47.63
2019-04-23T07:37:00.286Z,47.93
2019-04-23T07:39:45.703Z,48.36
2019-04-23T07:42:16.856Z,49.25
2019-04-23T07:44:42.394Z,49.33
2019-04-23T07:50:04.980Z,47.97
2019-04-23T07:52:23.950Z,48.32
2019-04-23T07:54:54.371Z,49.62
2019-04-23T07:57:18.719Z,48.96
2019-04-23T07:59:56.253Z,49.93
2019-04-23T08:02:28.954Z,50.89
2019-04-23T08:05:03.562Z,49.52
2019-04-23T08:07:23.119Z,49.32
2019-04-23T08:09:53.253Z,47.79
2019-04-23T08:12:25.555Z,46.59
2019-04-23T08:14:59.949Z,46.58
2019-04-23T08:17:22.516Z,45.69
2019-04-23T08:22:28.599Z,45.88
2019-04-23T08:25:12.873Z,46.92
2019-04-23T08:30:00.177Z,45.55
2019-04-23T08:32:45.160Z,46.31
2019-04-23T08:37:46.769Z,46.65
2019-04-23T08:40:04.376Z,47.00
2019-04-23T08:48:16.629Z,48.94
2019-04-23T08:50:40.650Z,48.64
2019-04-23T08:53:26.351Z,47.22
2019-04-23T08:55:44.540Z,48.76
2019-04-23T08:58:13.393Z,48.46
2019-04-23T09:00:51.917Z,47.73
2019-04-23T09:03:19.987Z,48.73
2019-04-23T09:06:00.750Z,49.41
2019-04-23T09:10:49.615Z,49.76
2019-04-23T09:13:39.981Z,51.53
2019-04-23T09:15:49.923Z,51.79
2019-04-23T09:18:23.021Z,53.51
2019-04-23T09:20:48.132Z,52.59
2019-04-23T09:23:29.496Z,52.77
2019-04-23T09:25:54.172Z,52.17
2019-04-23T09:28:34.603Z,52.67
2019-04-23T09:31:06.145Z,51.59
2019-04-23T09:36:22.471Z,52.84
2019-04-23T09:38:59.866Z,52.64
2019-04-23T09:41:28.065Z,50.90
2019-04-23T09:46:44.057Z,52.20
2019-04-23T09:49:17.725Z,54.93
2019-04-23T09:51:46.981Z,52.12
2019-04-23T09:56:50.945Z,55.45
2019-04-23T09:59:33.864Z,53.88
2019-04-23T10:01:49.771Z,53.92
2019-04-23T10:04:00.312Z,56.72
2019-04-23T10:06:24.967Z,53.50
2019-04-23T10:08:54.445Z,54.92
2019-04-23T10:11:22.259Z,54.10
2019-04-23T10:13:52.762Z,53.06
2019-04-23T10:16:25.596Z,52.61
2019-04-23T10:18:53.303Z,53.15
2019-04-23T10:21:23.604Z,52.29
2019-04-23T10:23:52.808Z,54.04
2019-04-23T10:26:21.937Z,53.78
2019-04-23T10:28:59.987Z,51.79
2019-04-23T10:31:28.976Z,51.95
2019-04-23T10:33:58.066Z,52.23
2019-04-23T10:36:32.152Z,52.74
2019-04-23T10:39:07.353Z,52.23
2019-04-23T10:41:32.730Z,52.51
2019-04-23T10:44:04.950Z,51.21
2019-04-23T10:46:58.283Z,52.45
2019-04-23T10:52:20.199Z,51.40
2019-04-23T10:57:11.264Z,51.17
2019-04-23T11:04:54.343Z,52.27
2019-04-23T11:07:30.792Z,50.77
2019-04-23T11:15:08.616Z,50.58
2019-04-23T11:17:45.517Z,52.18
2019-04-23T11:20:07.462Z,53.50
2019-04-23T11:22:43.869Z,54.39
2019-04-23T11:27:32.955Z,55.32
2019-04-23T11:30:10.781Z,52.45
2019-04-23T11:32:46.725Z,54.94
2019-04-23T11:35:17.563Z,54.08
2019-04-23T11:40:08.609Z,53.07
2019-04-23T11:42:42.590Z,53.04
2019-04-23T11:45:17.138Z,50.39
2019-04-23T11:50:32.729Z,50.23
2019-04-23T11:55:28.670Z,49.98
2019-04-23T11:57:52.572Z,48.15
2019-04-23T12:00:21.196Z,47.46
2019-04-23T12:03:02.532Z,49.44
2019-04-23T12:05:41.526Z,47.61
2019-04-23T12:08:13.433Z,47.94
2019-04-23T12:10:43.033Z,48.64
2019-04-23T12:13:21.460Z,47.54
2019-04-23T12:15:47.896Z,48.80
2019-04-23T12:18:23.095Z,48.83
2019-04-23T12:20:46.288Z,48.70
2019-04-23T12:25:58.650Z,49.13
2019-04-23T12:28:20.597Z,50.07
2019-04-23T12:30:50.761Z,50.84
2019-04-23T12:33:28.114Z,50.84
2019-04-23T12:35:51.959Z,52.12
2019-04-23T12:38:25.483Z,52.54
2019-04-23T12:40:56.307Z,52.99
2019-04-23T12:45:50.456Z,52.31
2019-04-23T12:48:41.321Z,51.34
2019-04-23T12:51:17.477Z,53.04
2019-04-23T12:53:32.222Z,52.59
2019-04-23T12:56:21.914Z,52.99
2019-04-23T12:58:26.977Z,52.89
2019-04-23T13:01:05.590Z,55.18
2019-04-23T13:03:30.209Z,55.43
2019-04-23T13:05:53.050Z,53.80
2019-04-23T13:11:23.718Z,56.06
2019-04-23T13:13:37.596Z,55.16
2019-04-23T13:16:25.343Z,55.83
2019-04-23T13:18:41.435Z,55.13
2019-04-23T13:21:13.566Z,55.79
2019-04-23T13:23:35.975Z,56.03
2019-04-23T13:26:04.495Z,54.96
2019-04-23T13:29:03.110Z,55.70
2019-04-23T13:33:45.481Z,58.04
2019-04-23T13:46:17.997Z,61.65
2019-04-23T13:48:47.030Z,63.10
2019-04-23T13:51:26.012Z,67.52
2019-04-23T13:56:24.776Z,68.73
2019-04-23T13:58:56.443Z,71.43
2019-04-23T14:01:30.916Z,69.13
2019-04-23T14:04:16.615Z,68.75
2019-04-23T14:08:59.853Z,65.08
2019-04-23T14:13:59.774Z,66.72
2019-04-23T14:24:08.346Z,65.32
2019-04-23T14:29:01.190Z,63.91
2019-04-23T14:31:28.000Z,63.62
2019-04-23T14:39:06.175Z,61.77
2019-04-23T14:41:36.257Z,61.33
2019-04-23T14:44:10.468Z,60.20
2019-04-23T14:54:12.857Z,61.01
2019-04-23T14:56:50.174Z,60.99
2019-04-23T15:01:42.891Z,60.24
2019-04-23T15:04:10.953Z,60.87
2019-04-23T15:06:50.794Z,62.01
2019-04-23T15:09:22.866Z,62.93
2019-04-23T15:11:52.777Z,62.46
2019-04-23T15:14:17.640Z,61.97
2019-04-23T15:16:54.466Z,61.21
2019-04-23T15:19:44.582Z,61.22
2019-04-23T15:22:04.719Z,62.46
2019-04-23T15:24:27.743Z,65.66
2019-04-23T15:29:13.036Z,71.21
2019-04-23T15:34:23.517Z,75.20
2019-04-23T15:37:14.050Z,76.55
2019-04-23T15:42:08.851Z,80.76
2019-04-23T15:44:27.771Z,83.08
2019-04-23T15:47:01.944Z,81.42
2019-04-23T15:49:35.637Z,83.58
2019-04-23T15:52:06.708Z,82.96
2019-04-23T15:54:36.562Z,83.20
2019-04-23T15:57:07.292Z,82.68
2019-04-23T16:01:42.661Z,81.06
2019-04-23T16:04:07.258Z,81.35
2019-04-23T16:06:38.517Z,82.28
2019-04-23T16:09:26.161Z,82.96
2019-04-23T16:12:01.510Z,81.85
2019-04-23T16:14:42.484Z,81.87
2019-04-23T16:19:59.651Z,84.02
2019-04-23T16:22:18.985Z,82.82
2019-04-23T16:24:59.845Z,83.11
2019-04-23T16:27:16.916Z,83.33
2019-04-23T16:30:00.249Z,84.43
2019-04-23T16:32:31.423Z,85.46
2019-04-23T16:35:08.867Z,85.15
2019-04-23T16:37:26.582Z,86.03
2019-04-23T16:40:03.481Z,85.97
2019-04-23T16:42:29.893Z,86.23
2019-04-23T16:45:12.398Z,87.50
2019-04-23T18:18:33.433Z,89.38
2019-04-23T18:21:23.258Z,89.43
2019-04-23T18:24:13.444Z,88.71
2019-04-23T18:26:51.534Z,88.92
2019-04-23T18:29:45.598Z,87.88
2019-04-23T18:32:16.288Z,87.21
2019-04-23T18:35:02.415Z,87.86
2019-04-23T18:37:17.935Z,87.17
2019-04-23T18:39:48.540Z,87.66
2019-04-23T18:47:29.397Z,86.47
2019-04-23T18:49:48.062Z,86.50
2019-04-23T18:52:25.990Z,85.93
2019-04-23T18:54:48.850Z,85.38
2019-04-23T19:02:39.407Z,86.14
2019-04-23T19:05:08.616Z,86.75
2019-04-23T19:07:42.390Z,86.92
2019-04-23T19:10:28.516Z,87.03
2019-04-23T19:15:36.517Z,86.79
2019-04-23T19:17:56.372Z,86.83
2019-04-23T19:23:09.505Z,87.99
2019-04-23T19:25:31.094Z,88.21
2019-04-23T19:28:23.974Z,88.17
2019-04-23T19:30:46.827Z,88.69
2019-04-23T19:40:53.508Z,86.98
2019-04-23T19:43:19.420Z,87.41
2019-04-23T19:45:55.753Z,86.70
2019-04-23T19:53:26.172Z,86.69
2019-04-23T19:56:04.184Z,85.41
2019-04-23T19:58:30.005Z,84.26
2019-04-23T20:05:59.506Z,85.55
2019-04-23T20:08:34.330Z,85.64
2019-04-23T20:10:57.436Z,85.34
2019-04-23T20:13:31.608Z,86.24
2019-04-23T20:16:05.332Z,85.48
2019-04-23T20:18:40.220Z,85.61
2019-04-23T20:20:59.260Z,85.30
2019-04-23T20:23:43.319Z,84.40
2019-04-23T20:32:31.312Z,83.58
2019-04-23T20:34:25.862Z,82.33
2019-04-23T20:36:33.767Z,82.82
2019-04-23T20:39:16.450Z,82.54
2019-04-23T20:41:58.003Z,83.33
2019-04-23T20:44:30.284Z,83.67
2019-04-23T20:46:58.275Z,83.78
2019-04-23T20:49:21.413Z,84.27
2019-04-23T20:51:54.937Z,84.06
2019-04-23T20:54:22.379Z,84.45
2019-04-23T20:57:10.755Z,84.93
2019-04-23T20:59:44.190Z,85.59
2019-04-23T21:02:15.130Z,86.24
2019-04-23T21:04:53.180Z,86.50
2019-04-23T21:07:15.984Z,85.67
2019-04-23T21:09:51.467Z,85.65
2019-04-23T21:12:22.890Z,84.90
2019-04-23T21:14:59.705Z,85.01
2019-04-23T21:17:14.648Z,84.96
2019-04-23T21:20:01.420Z,85.27
2019-04-23T21:24:46.455Z,86.00
2019-04-23T21:27:29.846Z,86.15
2019-04-23T21:29:58.787Z,87.24
2019-04-23T21:32:35.372Z,88.02
2019-04-23T21:35:04.912Z,88.66
2019-04-23T21:37:35.644Z,88.27
2019-04-23T21:42:41.088Z,87.39
2019-04-23T21:44:59.028Z,86.98
2019-04-23T21:50:14.114Z,88.16
2019-04-23T21:52:33.842Z,86.62
2019-04-23T21:55:03.635Z,86.84
2019-04-23T21:57:46.324Z,87.59
2019-04-23T22:02:52.085Z,84.70
2019-04-23T22:05:12.127Z,81.23
2019-04-23T22:08:01.717Z,81.23
2019-04-23T22:10:15.361Z,79.71
2019-04-23T22:12:46.816Z,78.30
2019-04-23T22:15:04.738Z,77.84
2019-04-23T22:17:44.634Z,78.02
2019-04-23T22:20:19.590Z,77.10
2019-04-23T22:22:56.339Z,77.33
2019-04-23T22:25:03.996Z,77.45
2019-04-23T22:27:49.698Z,78.05
2019-04-23T22:30:16.386Z,77.28
2019-04-23T22:33:00.976Z,76.99
2019-04-23T22:35:10.655Z,77.13
2019-04-23T22:37:54.645Z,77.34
2019-04-23T22:40:11.479Z,77.79
2019-04-23T22:43:08.986Z,77.96
2019-04-23T22:45:16.212Z,77.69
2019-04-23T22:47:55.666Z,76.62
2019-04-23T22:50:18.927Z,77.26
2019-04-23T22:52:53.988Z,77.13
2019-04-23T22:55:12.681Z,78.65
2019-04-23T23:03:21.201Z,82.19
2019-04-23T23:06:12.788Z,82.82
2019-04-23T23:10:50.772Z,81.20
2019-04-23T23:13:21.825Z,80.21
2019-04-23T23:15:53.326Z,79.90
2019-04-23T23:23:24.253Z,81.85
2019-04-23T23:25:59.182Z,82.99
2019-04-23T23:28:26.920Z,83.64
2019-04-23T23:31:02.032Z,84.56
2019-04-23T23:33:24.513Z,85.37
2019-04-23T23:35:58.913Z,85.86
2019-04-23T23:38:33.254Z,85.75
2019-04-23T23:41:03.707Z,85.88
2019-04-23T23:46:17.269Z,86.54
2019-04-23T23:48:28.041Z,86.82
2019-04-23T23:51:17.031Z,87.32
2019-04-23T23:53:40.200Z,87.36
2019-04-23T23:56:10.911Z,86.95
2019-04-23T23:58:48.232Z,86.81
